Time;durP1;ratioP1;P1;durP2;ratioP2;P2;SDS_P1;SDS_P2;PMS_P1;PMS_P2;Temp;Humidity;BMP_temperature;BMP_pressure;BME280_temperature;BME280_humidity;BME280_pressure;Samples;Min_cycle;Max_cycle;Signal;HPM_P1;HPM_P2
2022/04/01 00:00:03;;;;;;;34.90;27.70;;;3.90;99.90;;;;;;4991913;28;20161;-66
2022/04/01 00:02:28;;;;;;;31.63;26.00;;;3.90;99.90;;;;;;4991855;28;20195;-66
2022/04/01 00:04:54;;;;;;;33.40;26.23;;;4.00;99.90;;;;;;4997136;28;20629;-65
2022/04/01 00:07:20;;;;;;;33.43;25.83;;;3.90;99.90;;;;;;5002096;28;20181;-65
2022/04/01 00:09:45;;;;;;;36.27;26.10;;;3.90;99.90;;;;;;4983169;28;20176;-66
2022/04/01 00:12:11;;;;;;;32.03;25.97;;;4.00;99.90;;;;;;4994197;28;20624;-67
2022/04/01 00:14:38;;;;;;;37.23;28.23;;;4.00;99.90;;;;;;4992678;28;20222;-66
2022/04/01 00:17:04;;;;;;;33.80;26.83;;;4.10;99.90;;;;;;4990863;28;20176;-65
2022/04/01 00:19:30;;;;;;;36.43;28.17;;;4.10;99.90;;;;;;4974283;28;20289;-65
2022/04/01 00:21:56;;;;;;;35.57;26.53;;;4.10;99.90;;;;;;4991972;28;20263;-66
2022/04/01 00:24:22;;;;;;;37.07;27.30;;;4.10;99.90;;;;;;4990983;28;20206;-65
2022/04/01 00:26:48;;;;;;;37.33;28.93;;;4.00;99.90;;;;;;4974320;28;20181;-65
2022/04/01 00:29:15;;;;;;;39.47;28.27;;;4.00;99.90;;;;;;4994722;28;20165;-66
2022/04/01 00:31:48;;;;;;;35.60;27.30;;;3.90;99.90;;;;;;4995554;28;20180;-66
2022/04/01 00:34:15;;;;;;;38.93;28.73;;;3.90;99.90;;;;;;4995500;28;20344;-65
2022/04/01 00:36:46;;;;;;;38.67;29.23;;;3.80;99.90;;;;;;4977545;28;20235;-65
2022/04/01 00:39:17;;;;;;;31.33;25.93;;;3.80;99.90;;;;;;4993730;28;20187;-65
2022/04/01 00:41:45;;;;;;;35.10;26.83;;;3.60;99.90;;;;;;4994895;28;20195;-65
2022/04/01 00:44:19;;;;;;;28.80;25.13;;;3.50;99.90;;;;;;4976774;28;20278;-66
2022/04/01 00:46:48;;;;;;;34.53;30.43;;;3.50;99.90;;;;;;4994395;28;20540;-65
2022/04/01 00:49:13;;;;;;;32.50;27.47;;;3.40;99.90;;;;;;4994708;28;20701;-66
2022/04/01 00:51:44;;;;;;;33.27;26.70;;;3.40;99.90;;;;;;4977117;28;20173;-66
2022/04/01 00:54:11;;;;;;;35.30;25.53;;;3.30;99.90;;;;;;4976282;28;20201;-66
2022/04/01 00:56:38;;;;;;;34.17;26.80;;;3.30;99.90;;;;;;4994129;28;20213;-66
2022/04/01 00:59:04;;;;;;;34.53;27.50;;;3.20;99.90;;;;;;4977066;28;20708;-65
2022/04/01 01:01:36;;;;;;;36.77;29.13;;;3.10;99.90;;;;;;4994161;28;20223;-66
2022/04/01 01:04:09;;;;;;;34.17;30.30;;;3.10;99.90;;;;;;4976882;28;20266;-66
2022/04/01 01:06:39;;;;;;;35.63;31.23;;;3.10;99.90;;;;;;4993865;28;20501;-66
2022/04/01 01:09:05;;;;;;;35.67;30.63;;;3.00;99.90;;;;;;4994569;28;20169;-66
2022/04/01 01:11:31;;;;;;;36.63;31.77;;;3.00;99.90;;;;;;4994263;28;20168;-66
2022/04/01 01:13:57;;;;;;;35.63;29.37;;;2.90;99.90;;;;;;4976997;28;20169;-66
2022/04/01 01:16:23;;;;;;;33.60;29.93;;;2.90;99.90;;;;;;4993538;28;20240;-66
2022/04/01 01:19:18;;;;;;;37.63;31.97;;;2.90;99.90;;;;;;4994049;28;20181;-66
2022/04/01 01:21:50;;;;;;;31.67;27.63;;;2.90;99.90;;;;;;4964773;28;20193;-66
2022/04/01 01:24:16;;;;;;;33.33;29.70;;;2.80;99.90;;;;;;4994437;28;20200;-66
2022/04/01 01:26:52;;;;;;;32.67;29.13;;;2.80;99.90;;;;;;4994287;28;20260;-66
2022/04/01 01:29:25;;;;;;;32.40;29.00;;;2.80;99.90;;;;;;4994737;28;20580;-66
2022/04/01 01:31:52;;;;;;;31.77;28.07;;;2.80;99.90;;;;;;4977376;28;20180;-66
2022/04/01 01:34:18;;;;;;;30.67;27.47;;;2.80;99.90;;;;;;4993679;28;20247;-66
2022/04/01 01:36:44;;;;;;;29.43;26.23;;;2.80;99.90;;;;;;4976572;28;20264;-66
2022/04/01 01:39:10;;;;;;;33.40;28.37;;;2.70;99.90;;;;;;4993789;28;20538;-66
2022/04/01 01:41:36;;;;;;;32.20;28.97;;;2.70;99.90;;;;;;4994364;28;20312;-65
2022/04/01 01:44:01;;;;;;;28.70;25.63;;;2.70;99.90;;;;;;4976842;28;20295;-66
2022/04/01 01:46:27;;;;;;;30.07;26.50;;;2.70;99.90;;;;;;4993753;28;20184;-66
2022/04/01 01:48:53;;;;;;;27.67;24.73;;;2.70;99.90;;;;;;4976865;28;20304;-66
2022/04/01 01:56:47;;;;;;;25.30;22.67;;;2.70;99.90;;;;;;4994296;28;20187;-65
2022/04/01 01:59:12;;;;;;;25.67;23.07;;;2.70;99.90;;;;;;4992981;28;20177;-66
2022/04/01 02:01:42;;;;;;;26.63;23.83;;;2.70;99.90;;;;;;4994185;28;20180;-66
2022/04/01 02:04:09;;;;;;;25.97;23.37;;;2.70;99.90;;;;;;4976093;28;20547;-66
2022/04/01 02:06:35;;;;;;;26.20;23.50;;;2.70;99.90;;;;;;4993347;28;20177;-66
2022/04/01 02:09:01;;;;;;;28.63;25.93;;;2.70;99.90;;;;;;4993618;28;20176;-66
2022/04/01 02:11:27;;;;;;;27.47;24.87;;;2.70;99.90;;;;;;4993424;28;20543;-66
2022/04/01 02:13:53;;;;;;;25.43;23.00;;;2.70;99.90;;;;;;4976265;28;20184;-64
2022/04/01 02:16:21;;;;;;;26.73;24.20;;;2.70;99.90;;;;;;4975989;28;20541;-66
2022/04/01 02:18:48;;;;;;;25.03;22.47;;;2.60;99.90;;;;;;4993611;28;20196;-66
2022/04/01 02:21:15;;;;;;;22.40;20.10;;;2.60;99.90;;;;;;4993448;28;20572;-66
2022/04/01 02:23:43;;;;;;;26.23;23.40;;;2.60;99.90;;;;;;4993226;28;20211;-66
2022/04/01 02:26:10;;;;;;;24.63;22.23;;;2.60;99.90;;;;;;4975621;28;20219;-66
2022/04/01 02:28:40;;;;;;;24.80;22.43;;;2.60;99.90;;;;;;4993334;28;20183;-66
2022/04/01 02:31:06;;;;;;;22.47;20.37;;;2.60;99.90;;;;;;4975296;28;20263;-66
2022/04/01 02:33:33;;;;;;;23.13;20.90;;;2.60;99.90;;;;;;4974689;28;20185;-66
2022/04/01 02:35:59;;;;;;;23.17;21.03;;;2.50;99.90;;;;;;4993058;28;20291;-66
2022/04/01 02:38:26;;;;;;;21.90;19.83;;;2.50;99.90;;;;;;4975385;28;20192;-66
2022/04/01 02:40:56;;;;;;;22.70;20.30;;;2.50;99.90;;;;;;4993270;28;20207;-66
2022/04/01 02:43:23;;;;;;;21.67;19.17;;;2.50;99.90;;;;;;4992781;28;20561;-66
2022/04/01 02:45:49;;;;;;;22.47;20.27;;;2.50;99.90;;;;;;4992723;28;20219;-66
2022/04/01 02:48:15;;;;;;;21.93;19.73;;;2.50;99.90;;;;;;4993141;28;20169;-66
2022/04/01 02:50:42;;;;;;;23.23;20.90;;;2.50;99.90;;;;;;4992488;28;20185;-66
2022/04/01 02:53:07;;;;;;;21.93;19.73;;;2.60;99.90;;;;;;4992598;28;20251;-66
2022/04/01 02:55:33;;;;;;;25.20;21.13;;;2.50;99.90;;;;;;4991775;28;20339;-66
2022/04/01 02:58:01;;;;;;;20.90;19.23;;;2.50;99.90;;;;;;4992405;28;20546;-66
2022/04/01 03:00:27;;;;;;;20.60;18.23;;;2.50;99.90;;;;;;4974398;28;20710;-66
2022/04/01 03:02:53;;;;;;;19.03;17.47;;;2.40;99.90;;;;;;4974861;28;20177;-66
2022/04/01 03:05:19;;;;;;;21.50;19.37;;;2.40;99.90;;;;;;4991591;28;20189;-66
2022/04/01 03:07:45;;;;;;;20.33;18.13;;;2.40;99.90;;;;;;4973614;28;20176;-66
2022/04/01 03:10:11;;;;;;;17.83;16.13;;;2.30;99.90;;;;;;4974763;28;20212;-65
2022/04/01 03:12:37;;;;;;;17.77;15.93;;;2.30;99.90;;;;;;4973380;28;20392;-66
2022/04/01 03:15:04;;;;;;;18.07;16.47;;;2.30;99.90;;;;;;4992118;28;20208;-66
2022/04/01 03:17:31;;;;;;;16.70;15.10;;;2.30;99.90;;;;;;4992435;28;20204;-67
2022/04/01 03:19:59;;;;;;;19.37;16.87;;;2.30;99.90;;;;;;4991691;28;20181;-65
2022/04/01 03:22:25;;;;;;;19.13;17.13;;;2.30;99.90;;;;;;4992522;28;20420;-67
2022/04/01 03:24:51;;;;;;;18.57;16.90;;;2.30;99.90;;;;;;4992099;28;20592;-65
2022/04/01 03:27:17;;;;;;;19.07;17.43;;;2.30;99.90;;;;;;4992320;28;20176;-67
2022/04/01 03:29:42;;;;;;;18.47;16.53;;;2.40;99.90;;;;;;4972985;28;20274;-67
2022/04/01 03:32:10;;;;;;;18.87;17.27;;;2.40;99.90;;;;;;4992240;28;20264;-65
2022/04/01 03:34:36;;;;;;;19.07;17.17;;;2.40;99.90;;;;;;4992000;28;20212;-66
2022/04/01 03:37:05;;;;;;;17.53;16.07;;;2.30;99.90;;;;;;4985387;28;20261;-66
2022/04/01 03:39:35;;;;;;;18.67;17.00;;;2.30;99.90;;;;;;5012585;28;20196;-66
2022/04/01 03:42:06;;;;;;;17.70;16.10;;;2.30;99.90;;;;;;4995935;28;20165;-65
2022/04/01 03:44:32;;;;;;;18.67;16.87;;;2.20;99.90;;;;;;4993490;28;20697;-66
2022/04/01 03:47:05;;;;;;;19.07;17.37;;;2.10;99.90;;;;;;4993288;28;20173;-66
2022/04/01 03:49:33;;;;;;;18.10;16.43;;;2.10;99.90;;;;;;4993019;28;20176;-66
2022/04/01 03:52:00;;;;;;;16.13;14.73;;;2.10;99.90;;;;;;4993007;28;20161;-66
2022/04/01 03:54:27;;;;;;;17.30;15.60;;;2.10;99.90;;;;;;4974596;28;20204;-66
2022/04/01 03:57:01;;;;;;;22.83;15.20;;;2.10;99.90;;;;;;4992256;28;20184;-66
2022/04/01 03:59:40;;;;;;;16.90;15.23;;;2.10;99.90;;;;;;4974314;28;20614;-65
2022/04/01 04:02:11;;;;;;;16.73;15.23;;;2.10;99.90;;;;;;4991873;28;20246;-65
2022/04/01 04:04:38;;;;;;;16.37;14.87;;;2.00;99.90;;;;;;4977565;28;20323;-65
2022/04/01 04:07:06;;;;;;;17.17;15.43;;;2.00;99.90;;;;;;4978120;28;20681;-65
2022/04/01 04:09:37;;;;;;;16.47;14.97;;;2.00;99.90;;;;;;4995356;28;20181;-66
2022/04/01 04:12:04;;;;;;;16.57;15.00;;;2.00;99.90;;;;;;4978478;28;20173;-66
2022/04/01 04:14:31;;;;;;;15.93;14.53;;;1.90;99.90;;;;;;4995452;28;20203;-66
2022/04/01 04:17:02;;;;;;;16.70;15.20;;;1.90;99.90;;;;;;4995222;28;20180;-66
2022/04/01 04:19:36;;;;;;;15.67;14.47;;;1.90;99.90;;;;;;4995427;28;20177;-66
2022/04/01 04:22:16;;;;;;;15.17;13.87;;;1.90;99.90;;;;;;4995959;28;20181;-66
2022/04/01 04:24:54;;;;;;;15.67;14.40;;;2.00;99.90;;;;;;4977828;28;20646;-66
2022/04/01 04:27:26;;;;;;;13.90;12.70;;;1.90;99.90;;;;;;4978267;28;20172;-66
2022/04/01 04:29:55;;;;;;;13.63;12.53;;;2.00;99.90;;;;;;4976379;28;20201;-66
2022/04/01 04:32:33;;;;;;;14.93;13.73;;;2.00;99.90;;;;;;4993441;28;20212;-66
2022/04/01 04:35:04;;;;;;;17.00;15.50;;;2.00;99.90;;;;;;4995453;28;20690;-66
2022/04/01 04:37:33;;;;;;;14.23;12.90;;;2.00;99.90;;;;;;4977878;28;20185;-66
2022/04/01 04:39:59;;;;;;;15.60;14.13;;;2.00;99.90;;;;;;4977701;28;20543;-66
2022/04/01 04:42:27;;;;;;;14.13;13.03;;;2.00;99.90;;;;;;4994511;28;20184;-66
2022/04/01 04:44:53;;;;;;;14.93;13.50;;;2.00;99.90;;;;;;4977142;28;20212;-66
2022/04/01 04:47:26;;;;;;;16.90;15.50;;;2.00;99.90;;;;;;4994480;28;20180;-66
2022/04/01 04:49:53;;;;;;;14.53;13.43;;;2.00;99.90;;;;;;4994755;28;20204;-66
2022/04/01 04:52:20;;;;;;;14.77;13.67;;;2.00;99.90;;;;;;4994259;28;20420;-66
2022/04/01 04:54:47;;;;;;;14.80;13.60;;;2.00;99.90;;;;;;4993439;28;20632;-65
2022/04/01 04:57:13;;;;;;;15.00;13.70;;;2.10;99.90;;;;;;4993362;28;20177;-66
2022/04/01 04:59:42;;;;;;;14.37;12.97;;;2.10;99.90;;;;;;4976964;28;20180;-65
2022/04/01 05:02:19;;;;;;;14.10;12.70;;;2.10;99.90;;;;;;4995273;28;20180;-66
2022/04/01 05:05:05;;;;;;;13.23;12.20;;;2.10;99.90;;;;;;4993807;28;20763;-66
2022/04/01 05:07:52;;;;;;;13.57;12.53;;;2.10;99.90;;;;;;4995024;28;20532;-66
2022/04/01 05:10:26;;;;;;;13.63;12.53;;;2.10;99.90;;;;;;4995121;28;20677;-66
2022/04/01 05:13:23;;;;;;;14.03;13.03;;;2.10;99.90;;;;;;4977549;28;20177;-66
2022/04/01 05:15:53;;;;;;;13.93;12.90;;;2.10;99.90;;;;;;4993410;28;20247;-66
2022/04/01 05:18:29;;;;;;;14.00;12.83;;;2.10;99.90;;;;;;4994262;28;20169;-66
2022/04/01 05:20:59;;;;;;;12.83;11.83;;;2.10;99.90;;;;;;4994108;28;20646;-66
2022/04/01 05:23:33;;;;;;;14.60;13.20;;;2.10;99.90;;;;;;4976792;28;20212;-66
2022/04/01 05:26:09;;;;;;;13.60;12.60;;;2.10;99.90;;;;;;4993927;28;20196;-66
2022/04/01 05:28:45;;;;;;;13.23;12.03;;;2.10;99.90;;;;;;4994116;28;20176;-66
2022/04/01 05:31:35;;;;;;;14.47;13.23;;;2.10;99.90;;;;;;4994167;28;20641;-66
2022/04/01 05:34:22;;;;;;;13.00;12.10;;;2.10;99.90;;;;;;4992848;28;20244;-66
2022/04/01 05:36:50;;;;;;;12.27;11.30;;;2.10;99.90;;;;;;4992938;28;20177;-66
2022/04/01 05:39:17;;;;;;;12.80;11.50;;;2.10;99.90;;;;;;4993864;28;20609;-66
2022/04/01 05:41:45;;;;;;;15.40;14.07;;;2.10;99.90;;;;;;4994227;28;20180;-66
2022/04/01 05:44:12;;;;;;;13.80;12.40;;;2.10;99.90;;;;;;4994545;28;20209;-66
2022/04/01 05:46:39;;;;;;;12.70;11.80;;;2.10;99.90;;;;;;4977203;28;20216;-66
2022/04/01 05:49:05;;;;;;;12.90;12.00;;;2.10;99.90;;;;;;4987623;28;20187;-66
2022/04/01 05:51:33;;;;;;;12.03;11.03;;;2.10;99.90;;;;;;4979920;28;20209;-66
2022/04/01 05:53:59;;;;;;;12.67;11.67;;;2.10;99.90;;;;;;4993939;28;20177;-67
2022/04/01 05:56:26;;;;;;;11.97;11.07;;;2.10;99.90;;;;;;4976699;28;20188;-66
2022/04/01 05:58:52;;;;;;;12.87;11.87;;;2.00;99.90;;;;;;4994634;28;20168;-67
2022/04/01 06:01:45;;;;;;;11.70;10.80;;;2.10;99.90;;;;;;4994713;28;20188;-66
2022/04/01 06:04:36;;;;;;;11.87;10.97;;;2.10;99.90;;;;;;4978296;28;20216;-66
2022/04/01 06:07:38;;;;;;;14.30;13.07;;;2.10;99.90;;;;;;4995309;28;20185;-66
2022/04/01 06:10:11;;;;;;;13.33;12.23;;;2.10;99.90;;;;;;5005563;28;20271;-66
2022/04/01 06:12:49;;;;;;;13.73;12.63;;;2.10;99.90;;;;;;5013144;28;20177;-66
2022/04/01 06:15:31;;;;;;;12.37;11.47;;;2.10;99.90;;;;;;5013619;28;20259;-67
2022/04/01 06:18:31;;;;;;;13.10;12.10;;;2.10;99.90;;;;;;4997409;28;20177;-67
2022/04/01 06:21:05;;;;;;;12.23;11.23;;;2.20;99.90;;;;;;5014467;28;20185;-66
2022/04/01 06:23:49;;;;;;;13.07;12.07;;;2.20;99.90;;;;;;5013934;28;20216;-67
2022/04/01 06:26:16;;;;;;;12.97;11.97;;;2.20;99.90;;;;;;5012736;28;20240;-66
2022/04/01 06:29:02;;;;;;;13.17;12.27;;;2.10;99.90;;;;;;5013560;28;20179;-66
2022/04/01 06:31:30;;;;;;;12.80;11.70;;;2.20;99.90;;;;;;4980904;28;20192;-66
2022/04/01 06:34:04;;;;;;;12.40;11.47;;;2.20;99.90;;;;;;4992823;28;20254;-66
2022/04/01 06:36:44;;;;;;;12.23;11.33;;;2.20;99.90;;;;;;4993327;28;20497;-66
2022/04/01 06:39:13;;;;;;;12.83;11.90;;;2.20;99.90;;;;;;4992723;28;20240;-66
2022/04/01 06:41:46;;;;;;;11.77;10.90;;;2.10;99.90;;;;;;4993115;28;20545;-67
2022/04/01 06:44:12;;;;;;;12.47;11.60;;;2.10;99.90;;;;;;4993153;28;20213;-66
2022/04/01 06:46:38;;;;;;;12.67;11.67;;;2.10;99.90;;;;;;4992880;28;20177;-67
2022/04/01 06:49:08;;;;;;;12.27;11.47;;;2.20;99.90;;;;;;4992210;28;20445;-66
2022/04/01 06:51:38;;;;;;;12.30;11.33;;;2.10;99.90;;;;;;4992129;28;20192;-67
2022/04/01 06:54:05;;;;;;;12.63;11.57;;;2.10;99.90;;;;;;4992061;28;20244;-66
2022/04/01 06:56:30;;;;;;;12.47;11.47;;;2.10;99.90;;;;;;4992283;28;20649;-66
2022/04/01 06:58:56;;;;;;;11.70;10.87;;;2.20;99.90;;;;;;4975630;28;20518;-66
2022/04/01 07:01:22;;;;;;;12.10;11.30;;;2.20;99.90;;;;;;4982132;28;20248;-66
2022/04/01 07:03:47;;;;;;;11.53;10.83;;;2.20;99.90;;;;;;4986759;28;20238;-67
2022/04/01 07:06:13;;;;;;;12.37;11.47;;;2.20;99.90;;;;;;4986941;28;20176;-67
2022/04/01 07:08:39;;;;;;;12.67;11.67;;;2.20;99.90;;;;;;4975565;28;20231;-67
2022/04/01 07:11:05;;;;;;;11.50;10.70;;;2.10;99.90;;;;;;4992371;28;20189;-67
2022/04/01 07:13:30;;;;;;;12.83;11.73;;;2.10;99.90;;;;;;4992507;28;20185;-67
2022/04/01 07:15:56;;;;;;;11.20;10.50;;;2.20;99.90;;;;;;4992196;28;20213;-67
2022/04/01 07:18:22;;;;;;;11.47;10.57;;;2.20;99.90;;;;;;4992536;28;20180;-67
2022/04/01 07:20:48;;;;;;;12.00;11.10;;;2.20;99.90;;;;;;4975207;28;20192;-67
2022/04/01 07:23:15;;;;;;;11.70;10.90;;;2.20;99.90;;;;;;4992311;28;20200;-67
2022/04/01 07:25:41;;;;;;;11.67;10.57;;;2.20;99.90;;;;;;4991940;28;20256;-66
2022/04/01 07:28:09;;;;;;;11.47;10.57;;;2.20;99.90;;;;;;4991929;28;20169;-67
2022/04/01 07:30:34;;;;;;;11.57;10.67;;;2.30;99.90;;;;;;4991939;28;20177;-67
2022/04/01 07:33:00;;;;;;;12.83;11.73;;;2.20;99.90;;;;;;4992021;28;20538;-67
2022/04/01 07:35:26;;;;;;;11.37;10.50;;;2.20;99.90;;;;;;4991487;28;20247;-67
2022/04/01 07:37:52;;;;;;;11.67;10.67;;;2.30;99.90;;;;;;4991457;28;20216;-67
2022/04/01 07:40:18;;;;;;;10.90;10.03;;;2.30;99.90;;;;;;4991807;28;20169;-67
2022/04/01 07:42:44;;;;;;;11.23;10.33;;;2.30;99.90;;;;;;4992254;28;20173;-67
2022/04/01 07:45:11;;;;;;;10.77;10.07;;;2.30;99.90;;;;;;4991181;28;20208;-67
2022/04/01 07:47:37;;;;;;;11.07;10.33;;;2.30;99.90;;;;;;4973841;28;20541;-67
2022/04/01 07:50:05;;;;;;;11.33;10.27;;;2.30;99.90;;;;;;4991930;28;20638;-67
2022/04/01 07:52:40;;;;;;;11.00;10.20;;;2.30;99.90;;;;;;4973954;28;20827;-66
2022/04/01 07:55:06;;;;;;;11.07;10.17;;;2.30;99.90;;;;;;4990789;28;20207;-67
2022/04/01 07:57:32;;;;;;;10.93;10.13;;;2.30;99.90;;;;;;4973888;28;20207;-67
2022/04/01 07:59:57;;;;;;;10.60;9.90;;;2.20;99.90;;;;;;4973980;28;20635;-67
2022/04/01 08:02:23;;;;;;;11.57;10.67;;;2.20;99.90;;;;;;4991492;28;20179;-67
2022/04/01 08:04:49;;;;;;;10.63;9.93;;;2.30;99.90;;;;;;4991410;28;20817;-67
2022/04/01 08:07:15;;;;;;;9.93;9.33;;;2.40;99.90;;;;;;4991467;28;20173;-66
2022/04/01 08:09:41;;;;;;;10.97;10.07;;;2.40;99.90;;;;;;4992170;28;20650;-66
2022/04/01 08:12:08;;;;;;;11.87;10.97;;;2.40;99.90;;;;;;4974331;28;20173;-66
2022/04/01 08:14:36;;;;;;;10.73;10.00;;;2.40;99.90;;;;;;4991430;28;20254;-67
2022/04/01 08:17:02;;;;;;;11.67;10.80;;;2.50;99.90;;;;;;4991575;28;20644;-66
2022/04/01 08:19:28;;;;;;;11.20;10.40;;;2.40;99.90;;;;;;4991259;28;20545;-67
2022/04/01 08:21:57;;;;;;;11.03;10.33;;;2.40;99.90;;;;;;4991231;28;20184;-66
2022/04/01 08:24:24;;;;;;;10.43;9.73;;;2.40;99.90;;;;;;4991050;28;20208;-66
2022/04/01 08:26:50;;;;;;;10.90;10.13;;;2.30;99.90;;;;;;4991211;28;21521;-67
2022/04/01 08:29:16;;;;;;;10.23;9.53;;;2.30;99.90;;;;;;4990526;28;20185;-67
2022/04/01 08:31:42;;;;;;;11.30;10.50;;;2.30;99.90;;;;;;4991703;28;20232;-67
2022/04/01 08:34:09;;;;;;;11.47;10.67;;;2.40;99.90;;;;;;4991384;28;20487;-66
2022/04/01 08:36:34;;;;;;;10.70;9.80;;;2.40;99.90;;;;;;4973886;28;20192;-67
2022/04/01 08:39:00;;;;;;;11.33;10.43;;;2.40;99.90;;;;;;4973734;28;20288;-67
2022/04/01 08:41:25;;;;;;;11.90;11.00;;;2.30;99.90;;;;;;4991424;28;20597;-66
2022/04/01 08:43:52;;;;;;;11.43;10.63;;;2.30;99.90;;;;;;4991581;28;20212;-67
2022/04/01 08:46:20;;;;;;;12.50;11.60;;;2.30;99.90;;;;;;4990988;28;20629;-67
2022/04/01 08:48:47;;;;;;;12.57;11.67;;;2.30;99.90;;;;;;4992003;28;20183;-66
2022/04/01 08:51:13;;;;;;;12.37;11.47;;;2.40;99.90;;;;;;4977361;28;20185;-66
2022/04/01 08:53:43;;;;;;;11.03;10.20;;;2.40;99.90;;;;;;4994924;28;20192;-67
2022/04/01 08:56:08;;;;;;;12.10;11.20;;;2.40;99.90;;;;;;4994534;28;20184;-67
2022/04/01 08:58:35;;;;;;;10.90;10.17;;;2.40;99.90;;;;;;4977355;28;20634;-67
2022/04/01 09:01:02;;;;;;;12.73;11.73;;;2.40;99.90;;;;;;5002778;28;20271;-67
2022/04/01 09:03:28;;;;;;;11.77;10.93;;;2.40;99.90;;;;;;4995290;28;20303;-67
2022/04/01 09:06:00;;;;;;;12.00;11.03;;;2.40;99.90;;;;;;4994446;28;20568;-67
2022/04/01 09:08:37;;;;;;;12.50;11.60;;;2.30;99.90;;;;;;4994482;28;20544;-66
2022/04/01 09:11:16;;;;;;;11.37;10.57;;;2.30;99.90;;;;;;4995132;28;20235;-66
2022/04/01 09:13:50;;;;;;;11.90;11.10;;;2.40;99.90;;;;;;4994361;28;20193;-67
2022/04/01 09:16:36;;;;;;;11.80;10.90;;;2.40;99.90;;;;;;4994491;28;20219;-66
2022/04/01 09:19:06;;;;;;;11.07;10.30;;;2.40;99.90;;;;;;4975054;28;20190;-66
2022/04/01 09:21:36;;;;;;;10.83;10.10;;;2.40;99.90;;;;;;4957950;28;20193;-67
2022/04/01 09:24:03;;;;;;;12.03;11.23;;;2.50;99.90;;;;;;4994488;28;20212;-66
2022/04/01 09:26:37;;;;;;;13.80;12.90;;;2.60;99.90;;;;;;4993841;28;20271;-66
2022/04/01 09:29:05;;;;;;;12.27;11.37;;;2.70;99.90;;;;;;4974992;28;20259;-67
2022/04/01 09:31:36;;;;;;;10.37;9.77;;;2.70;99.90;;;;;;4974577;28;20251;-66
2022/04/01 09:34:06;;;;;;;10.83;10.00;;;2.70;99.90;;;;;;4975590;28;20583;-67
2022/04/01 09:36:33;;;;;;;12.60;11.83;;;2.60;99.90;;;;;;4994120;28;20308;-66
2022/04/01 09:39:14;;;;;;;13.87;12.70;;;2.60;99.90;;;;;;4976842;28;20180;-66
2022/04/01 09:41:43;;;;;;;10.30;9.40;;;2.50;99.90;;;;;;4976863;28;20193;-65
2022/04/01 09:44:19;;;;;;;10.33;9.57;;;2.40;99.90;;;;;;4976393;28;20219;-67
2022/04/01 09:46:56;;;;;;;11.00;10.17;;;2.40;99.90;;;;;;4992543;28;20391;-67
2022/04/01 09:49:28;;;;;;;11.30;10.60;;;2.40;99.90;;;;;;5008335;28;20219;-66
2022/04/01 09:51:54;;;;;;;11.87;11.10;;;2.40;99.90;;;;;;4973652;28;20185;-67
2022/04/01 09:54:19;;;;;;;10.70;9.97;;;2.50;99.90;;;;;;4974647;28;20205;-66
2022/04/01 09:56:47;;;;;;;10.53;9.90;;;2.40;99.90;;;;;;4975153;28;20185;-67
2022/04/01 09:59:15;;;;;;;11.33;10.63;;;2.50;99.90;;;;;;4976470;28;20216;-67
2022/04/01 10:01:43;;;;;;;11.20;10.47;;;2.40;99.90;;;;;;4992976;28;20192;-67
2022/04/01 10:04:09;;;;;;;11.30;10.47;;;2.40;99.90;;;;;;4993571;28;20219;-66
2022/04/01 10:06:36;;;;;;;11.73;11.03;;;2.40;99.90;;;;;;5006411;28;20601;-67
2022/04/01 10:09:08;;;;;;;11.30;10.53;;;2.40;99.90;;;;;;5013655;28;20179;-67
2022/04/01 10:11:35;;;;;;;10.40;9.70;;;2.40;99.90;;;;;;4983391;28;20208;-66
2022/04/01 10:14:09;;;;;;;11.20;10.30;;;2.40;99.90;;;;;;5006031;28;20196;-66
2022/04/01 10:16:35;;;;;;;11.50;10.50;;;2.40;99.90;;;;;;5005358;28;20188;-66
2022/04/01 10:19:06;;;;;;;10.87;10.07;;;2.30;99.90;;;;;;4995925;28;20184;-66
2022/04/01 10:21:35;;;;;;;9.83;9.23;;;2.30;99.90;;;;;;4993542;28;20193;-66
2022/04/01 10:24:32;;;;;;;10.67;9.97;;;2.40;99.90;;;;;;4976099;28;20340;-66
2022/04/01 10:27:06;;;;;;;11.37;10.67;;;2.40;99.90;;;;;;4992799;28;20272;-67
2022/04/01 10:29:33;;;;;;;12.43;11.53;;;2.50;99.90;;;;;;4976570;28;20188;-67
2022/04/01 10:32:29;;;;;;;13.77;12.77;;;2.60;99.90;;;;;;4991800;28;20185;-66
2022/04/01 10:34:59;;;;;;;12.23;11.47;;;2.70;99.90;;;;;;4948085;28;20225;-66
2022/04/01 10:37:27;;;;;;;13.13;12.33;;;2.70;99.90;;;;;;4956510;28;20178;-67
2022/04/01 10:40:00;;;;;;;13.80;13.00;;;2.80;99.90;;;;;;4990372;28;20281;-66
2022/04/01 10:42:38;;;;;;;12.17;11.37;;;2.80;99.90;;;;;;4993086;28;20176;-66
2022/04/01 10:45:08;;;;;;;13.67;12.70;;;2.90;99.90;;;;;;4975198;28;20590;-67
2022/04/01 10:51:39;;;;;;;12.63;11.83;;;2.90;99.90;;;;;;4973574;28;20228;-67
2022/04/01 10:54:14;;;;;;;11.53;10.83;;;2.90;99.90;;;;;;4970638;28;20205;-67
2022/04/01 10:56:54;;;;;;;10.80;10.10;;;2.90;99.90;;;;;;4974861;28;20192;-66
2022/04/01 10:59:25;;;;;;;11.10;10.40;;;2.90;99.90;;;;;;4975096;28;20192;-67
2022/04/01 11:01:54;;;;;;;12.07;11.07;;;2.90;99.90;;;;;;4992503;28;20590;-66
2022/04/01 11:04:19;;;;;;;11.97;11.27;;;3.00;99.90;;;;;;4974649;28;20216;-67
2022/04/01 11:07:04;;;;;;;11.27;10.57;;;3.20;99.90;;;;;;4992390;28;20783;-67
2022/04/01 11:09:35;;;;;;;15.70;14.70;;;3.20;99.90;;;;;;4992685;28;20181;-66
2022/04/01 11:12:19;;;;;;;14.60;13.67;;;3.10;99.90;;;;;;4992459;28;20200;-67
2022/04/01 11:14:56;;;;;;;14.87;13.93;;;3.10;99.90;;;;;;4975245;28;20207;-66
2022/04/01 11:17:51;;;;;;;14.73;13.87;;;3.10;99.90;;;;;;4974354;28;20695;-66
2022/04/01 11:20:21;;;;;;;14.57;13.67;;;3.10;99.90;;;;;;4970936;28;20203;-67
2022/04/01 11:23:00;;;;;;;15.73;14.83;;;3.10;99.90;;;;;;4992462;28;20181;-67
2022/04/01 11:25:31;;;;;;;14.03;13.23;;;3.00;99.90;;;;;;4992070;28;20689;-66
2022/04/01 11:28:06;;;;;;;14.03;13.23;;;3.00;99.90;;;;;;4992105;28;20581;-67
2022/04/01 11:30:40;;;;;;;13.47;12.73;;;3.10;99.90;;;;;;4992684;28;20276;-67
2022/04/01 11:33:15;;;;;;;11.33;10.63;;;3.20;99.90;;;;;;4974871;28;20182;-67
2022/04/01 11:35:44;;;;;;;11.33;10.47;;;3.10;99.90;;;;;;4974224;28;20682;-67
2022/04/01 11:38:14;;;;;;;11.93;11.13;;;3.00;99.90;;;;;;4974140;28;20195;-67
2022/04/01 11:40:40;;;;;;;12.00;10.93;;;3.10;99.90;;;;;;4974632;28;20180;-67
2022/04/01 11:43:11;;;;;;;11.83;10.90;;;3.00;99.90;;;;;;4973845;28;20215;-66
2022/04/01 11:45:46;;;;;;;13.67;12.87;;;3.00;99.90;;;;;;4990097;28;20193;-67
2022/04/01 11:48:28;;;;;;;14.00;13.10;;;3.10;99.90;;;;;;4974025;28;20180;-67
2022/04/01 11:51:11;;;;;;;12.83;11.83;;;3.10;99.90;;;;;;4991702;28;20204;-67
2022/04/01 11:53:43;;;;;;;11.13;10.33;;;3.10;99.90;;;;;;4991271;28;20323;-67
2022/04/01 11:56:10;;;;;;;10.63;9.93;;;3.00;99.90;;;;;;4990036;28;20613;-66
2022/04/01 11:58:53;;;;;;;10.37;9.67;;;3.00;99.90;;;;;;4973621;28;20624;-66
2022/04/01 12:01:20;;;;;;;10.83;10.13;;;3.00;99.90;;;;;;4991149;28;20200;-67
2022/04/01 12:03:46;;;;;;;11.63;10.83;;;3.00;99.90;;;;;;4990517;28;20262;-66
2022/04/01 12:09:04;;;;;;;11.40;10.63;;;2.90;99.90;;;;;;4991730;28;20654;-67
2022/04/01 12:11:37;;;;;;;11.10;10.30;;;2.80;99.90;;;;;;4990599;28;20180;-67
2022/04/01 12:14:03;;;;;;;10.93;10.23;;;2.80;99.90;;;;;;4973956;28;20200;-66
2022/04/01 12:16:29;;;;;;;11.63;10.90;;;2.80;99.90;;;;;;4972000;28;20579;-67
2022/04/01 12:18:57;;;;;;;11.40;10.60;;;2.70;99.90;;;;;;4991245;28;20173;-67
2022/04/01 12:21:24;;;;;;;11.03;10.23;;;2.70;99.90;;;;;;4991323;28;20204;-67
2022/04/01 12:23:51;;;;;;;11.10;10.40;;;2.80;99.90;;;;;;4974965;28;20521;-67
2022/04/01 12:26:19;;;;;;;10.80;10.00;;;2.90;99.90;;;;;;4976968;28;20176;-67
2022/04/01 12:28:49;;;;;;;11.90;11.10;;;2.90;99.90;;;;;;4978144;28;20173;-67
2022/04/01 12:31:21;;;;;;;13.13;12.43;;;2.90;99.90;;;;;;4977710;28;20181;-67
2022/04/01 12:33:50;;;;;;;14.43;13.53;;;2.80;99.90;;;;;;4977858;28;20309;-68
2022/04/01 12:36:18;;;;;;;12.97;12.10;;;2.90;99.90;;;;;;4976317;28;20243;-67
2022/04/01 12:39:00;;;;;;;12.23;11.50;;;2.90;99.90;;;;;;4994627;28;20196;-67
2022/04/01 12:41:26;;;;;;;13.40;12.50;;;3.00;99.90;;;;;;4976804;28;20654;-67
2022/04/01 12:43:53;;;;;;;14.63;13.63;;;3.00;99.90;;;;;;4976998;28;20219;-67
2022/04/01 12:46:20;;;;;;;13.23;12.43;;;3.10;99.90;;;;;;4976705;28;20646;-67
2022/04/01 12:48:57;;;;;;;13.63;12.73;;;3.10;99.90;;;;;;4995019;28;20171;-67
2022/04/01 12:51:24;;;;;;;13.20;12.30;;;3.20;99.90;;;;;;4994365;28;20275;-67
2022/04/01 12:54:11;;;;;;;11.60;10.90;;;3.30;99.90;;;;;;4994291;28;20212;-67
2022/04/01 12:56:43;;;;;;;11.43;10.73;;;3.40;99.90;;;;;;4977241;28;20549;-66
2022/04/01 12:59:16;;;;;;;11.10;10.40;;;3.30;99.90;;;;;;4994700;28;20187;-67
2022/04/01 13:01:44;;;;;;;11.10;10.40;;;3.20;99.90;;;;;;4994963;28;20177;-67
2022/04/01 13:04:17;;;;;;;11.80;11.00;;;3.30;99.90;;;;;;4976907;28;20308;-66